createdAt,value
2022-10-23T00:00:04.131Z,2.38
2022-10-23T00:02:53.883Z,2.03
2022-10-23T00:05:41.479Z,2.40
2022-10-23T00:08:29.087Z,4.53
2022-10-23T00:11:23.140Z,4.15
2022-10-23T00:14:10.181Z,4.22
2022-10-23T00:16:55.776Z,3.40
2022-10-23T00:19:41.362Z,2.30
2022-10-23T00:22:27.250Z,2.65
2022-10-23T00:25:13.292Z,5.10
2022-10-23T00:28:00.532Z,3.05
2022-10-23T00:30:46.625Z,4.35
2022-10-23T00:33:37.254Z,2.95
2022-10-23T00:36:23.341Z,3.03
2022-10-23T00:39:10.837Z,2.70
2022-10-23T00:41:57.026Z,3.65
2022-10-23T00:44:44.240Z,2.13
2022-10-23T00:47:29.973Z,4.60
2022-10-23T00:50:16.517Z,1.98
2022-10-23T00:53:04.893Z,1.70
2022-10-23T00:55:53.873Z,2.70
2022-10-23T00:58:39.310Z,4.95
2022-10-23T01:01:25.142Z,4.53
2022-10-23T01:04:11.661Z,5.32
2022-10-23T01:07:07.145Z,4.00
2022-10-23T01:10:01.178Z,2.45
2022-10-23T01:12:51.052Z,3.67
2022-10-23T01:15:49.286Z,1.33
2022-10-23T01:18:56.323Z,3.47
2022-10-23T01:21:50.497Z,2.95
2022-10-23T01:24:56.654Z,2.53
2022-10-23T01:27:51.011Z,2.33
2022-10-23T01:30:42.956Z,4.03
2022-10-23T01:33:38.011Z,3.38
2022-10-23T01:36:27.702Z,3.17
2022-10-23T01:39:24.418Z,2.80
2022-10-23T01:42:19.288Z,2.47
2022-10-23T01:45:28.906Z,2.83
2022-10-23T01:48:19.209Z,5.35
2022-10-23T01:51:09.733Z,1.60
2022-10-23T01:53:59.239Z,2.45
2022-10-23T01:56:48.562Z,3.45
2022-10-23T01:59:38.663Z,1.33
2022-10-23T02:02:28.067Z,1.80
2022-10-23T02:05:28.983Z,1.40
2022-10-23T02:08:16.003Z,1.98
2022-10-23T02:11:08.790Z,2.50
2022-10-23T02:14:09.174Z,2.92
2022-10-23T02:16:57.428Z,2.63
2022-10-23T02:19:50.792Z,1.92
2022-10-23T02:22:49.842Z,3.40
2022-10-23T02:26:01.468Z,3.50
2022-10-23T02:28:52.270Z,2.45
2022-10-23T02:31:39.090Z,3.13
2022-10-23T02:34:24.816Z,3.70
2022-10-23T02:37:13.546Z,3.63
2022-10-23T02:40:00.502Z,3.97
2022-10-23T02:43:28.323Z,3.72
2022-10-23T02:46:55.985Z,3.38
2022-10-23T02:49:59.616Z,1.40
2022-10-23T02:53:15.157Z,1.42
2022-10-23T02:56:23.615Z,2.05
2022-10-23T02:59:34.160Z,2.05
2022-10-23T03:02:51.702Z,2.35
2022-10-23T03:05:40.659Z,5.55
2022-10-23T03:08:26.568Z,1.35
2022-10-23T03:11:12.397Z,1.38
2022-10-23T03:13:58.012Z,1.75
2022-10-23T03:16:43.774Z,0.80
2022-10-23T03:19:29.246Z,2.65
2022-10-23T03:22:15.172Z,3.10
2022-10-23T03:25:00.648Z,2.10
2022-10-23T03:27:48.561Z,4.20
2022-10-23T03:30:35.890Z,3.40
2022-10-23T03:33:21.540Z,2.58
2022-10-23T03:36:07.594Z,1.90
2022-10-23T03:38:53.615Z,2.92
2022-10-23T03:41:40.165Z,1.75
2022-10-23T03:44:26.462Z,3.40
2022-10-23T03:47:12.194Z,1.77
2022-10-23T03:49:58.145Z,1.42
2022-10-23T03:52:44.088Z,2.15
2022-10-23T03:55:31.656Z,2.65
2022-10-23T03:58:17.737Z,0.80
2022-10-23T04:01:03.976Z,2.92
2022-10-23T04:03:49.490Z,1.73
2022-10-23T04:06:35.446Z,0.80
2022-10-23T04:09:21.777Z,4.13
2022-10-23T04:12:07.852Z,3.53
2022-10-23T04:14:53.600Z,4.97
2022-10-23T04:17:40.534Z,4.70
2022-10-23T04:20:26.363Z,3.35
2022-10-23T04:23:11.910Z,4.82
2022-10-23T04:26:00.239Z,1.95
2022-10-23T04:28:45.897Z,1.65
2022-10-23T04:31:31.887Z,2.08
2022-10-23T04:34:18.980Z,1.70
2022-10-23T04:37:04.768Z,3.33
2022-10-23T04:39:50.416Z,2.00
2022-10-23T04:42:35.725Z,1.20
2022-10-23T04:45:22.089Z,3.10
2022-10-23T04:48:07.908Z,1.80
2022-10-23T04:51:25.330Z,2.25
2022-10-23T04:54:15.258Z,2.20
2022-10-23T04:57:01.076Z,2.92
2022-10-23T04:59:55.156Z,2.50
2022-10-23T05:02:40.814Z,2.08
2022-10-23T05:05:26.573Z,2.90
2022-10-23T05:08:15.552Z,1.13
2022-10-23T05:11:22.673Z,1.92
2022-10-23T05:14:10.368Z,3.85
2022-10-23T05:17:04.866Z,1.13
2022-10-23T05:19:55.970Z,0.77
2022-10-23T05:22:43.879Z,3.75
2022-10-23T05:25:31.065Z,3.53
2022-10-23T05:28:30.602Z,3.00
2022-10-23T05:31:17.905Z,3.13
2022-10-23T05:34:09.909Z,2.17
2022-10-23T05:37:03.557Z,3.10
2022-10-23T05:39:53.694Z,3.63
2022-10-23T05:42:41.596Z,2.45
2022-10-23T05:45:28.801Z,3.50
2022-10-23T05:48:35.521Z,2.00
2022-10-23T05:51:27.449Z,1.65
2022-10-23T05:54:20.347Z,2.05
2022-10-23T05:57:18.494Z,2.55
2022-10-23T06:00:08.872Z,1.67
2022-10-23T06:03:01.326Z,2.60
2022-10-23T06:05:57.245Z,2.63
2022-10-23T06:08:52.121Z,2.35
2022-10-23T06:11:40.016Z,2.28
2022-10-23T06:14:30.913Z,4.60
2022-10-23T06:17:16.969Z,2.15
2022-10-23T06:20:05.539Z,2.42
2022-10-23T06:22:55.196Z,1.40
2022-10-23T06:26:00.967Z,1.90
2022-10-23T06:28:56.816Z,4.53
2022-10-23T06:31:42.337Z,4.03
2022-10-23T06:34:27.856Z,5.05
2022-10-23T06:37:13.419Z,4.03
2022-10-23T06:40:06.334Z,2.35
2022-10-23T06:43:06.575Z,3.20
2022-10-23T06:46:07.541Z,3.40
2022-10-23T06:49:12.102Z,2.25
2022-10-23T06:52:04.842Z,3.90
2022-10-23T06:54:50.523Z,1.95
2022-10-23T06:57:39.520Z,4.45
2022-10-23T07:00:25.825Z,5.38
2022-10-23T07:03:12.190Z,3.15
2022-10-23T07:06:04.194Z,2.92
2022-10-23T07:08:50.153Z,2.25
2022-10-23T07:11:55.545Z,2.83
2022-10-23T07:14:49.544Z,2.33
2022-10-23T07:17:35.152Z,3.35
2022-10-23T07:20:22.187Z,2.50
2022-10-23T07:23:11.080Z,1.85
2022-10-23T07:26:06.234Z,2.10
2022-10-23T07:28:55.233Z,1.83
2022-10-23T07:31:43.042Z,4.97
2022-10-23T07:35:03.810Z,2.00
2022-10-23T07:37:52.511Z,1.35
2022-10-23T07:40:38.991Z,1.60
2022-10-23T07:43:27.662Z,1.70
2022-10-23T07:46:13.143Z,3.28
2022-10-23T07:48:58.612Z,5.82
2022-10-23T07:51:48.967Z,2.17
2022-10-23T07:54:37.025Z,1.02
2022-10-23T07:57:35.264Z,3.65
2022-10-23T08:00:40.541Z,2.78
2022-10-23T08:03:36.707Z,1.08
2022-10-23T08:06:22.247Z,1.48
2022-10-23T08:09:08.787Z,3.13
2022-10-23T08:11:57.304Z,3.28
2022-10-23T08:14:45.312Z,1.92
2022-10-23T08:17:31.698Z,4.05
2022-10-23T08:20:34.292Z,2.25
2022-10-23T08:23:20.607Z,2.03
2022-10-23T08:26:08.235Z,1.85
2022-10-23T08:28:53.704Z,3.58
2022-10-23T08:31:40.623Z,4.18
2022-10-23T08:34:46.357Z,3.28
2022-10-23T08:37:32.239Z,1.52
2022-10-23T08:40:22.575Z,2.35
2022-10-23T08:43:39.017Z,2.85
2022-10-23T08:46:44.228Z,2.00
2022-10-23T08:50:03.389Z,2.97
2022-10-23T08:53:11.437Z,2.15
2022-10-23T08:56:07.064Z,2.60
2022-10-23T08:59:24.944Z,1.77
2022-10-23T09:02:19.139Z,2.38
2022-10-23T09:05:11.720Z,1.80
2022-10-23T09:08:28.902Z,5.80
2022-10-23T09:11:20.958Z,1.30
2022-10-23T09:14:40.585Z,1.45
2022-10-23T09:17:28.857Z,1.80
2022-10-23T09:20:25.740Z,4.47
2022-10-23T09:23:18.477Z,2.03
2022-10-23T09:26:15.063Z,5.10
2022-10-23T09:29:18.874Z,2.50
2022-10-23T09:32:07.071Z,3.83
2022-10-23T09:34:55.047Z,3.67
2022-10-23T09:37:48.437Z,1.65
2022-10-23T09:40:51.923Z,4.32
2022-10-23T09:43:37.806Z,3.80
2022-10-23T09:46:44.672Z,5.53
2022-10-23T09:49:33.694Z,2.70
2022-10-23T09:52:19.905Z,4.17
2022-10-23T09:55:25.194Z,1.83
2022-10-23T09:58:24.975Z,3.30
2022-10-23T10:01:24.366Z,2.45
2022-10-23T10:04:12.857Z,2.13
2022-10-23T10:06:59.464Z,2.42
2022-10-23T10:09:45.110Z,1.30
2022-10-23T10:12:51.204Z,1.60
2022-10-23T10:15:58.248Z,3.20
2022-10-23T10:18:47.536Z,2.95
2022-10-23T10:21:57.436Z,2.42
2022-10-23T10:25:03.182Z,1.20
2022-10-23T10:27:56.111Z,1.80
2022-10-23T10:30:50.982Z,2.22
2022-10-23T10:33:49.471Z,4.55
2022-10-23T10:36:48.124Z,1.98
2022-10-23T10:39:44.484Z,1.77
2022-10-23T10:43:22.654Z,1.82
2022-10-23T10:46:37.611Z,1.10
2022-10-23T10:49:23.627Z,3.03
2022-10-23T10:52:38.845Z,2.65
2022-10-23T10:55:29.649Z,2.45
2022-10-23T10:58:35.770Z,2.55
2022-10-23T11:01:55.113Z,2.08
2022-10-23T11:08:07.264Z,1.63
2022-10-23T11:10:56.958Z,2.58
2022-10-23T11:13:44.401Z,2.42
2022-10-23T11:16:36.060Z,2.35
2022-10-23T11:19:25.640Z,2.90
2022-10-23T11:25:56.607Z,2.38
2022-10-23T11:29:03.467Z,2.35
2022-10-23T11:32:44.625Z,1.45
2022-10-23T11:35:48.255Z,2.35
2022-10-23T11:38:40.153Z,3.33
2022-10-23T11:41:33.849Z,2.50
2022-10-23T11:44:44.685Z,3.90
2022-10-23T11:47:40.076Z,1.67
2022-10-23T11:50:50.720Z,2.45
2022-10-23T11:53:36.665Z,1.55
2022-10-23T11:56:27.610Z,5.45
2022-10-23T11:59:37.861Z,2.85
2022-10-23T12:02:38.676Z,1.77
2022-10-23T12:05:30.066Z,1.45
2022-10-23T12:08:22.551Z,2.60
2022-10-23T12:11:42.323Z,2.22
2022-10-23T12:14:29.409Z,2.03
2022-10-23T12:17:36.901Z,1.63
2022-10-23T12:20:48.141Z,4.68
2022-10-23T12:23:52.492Z,1.83
2022-10-23T12:27:19.936Z,3.90
2022-10-23T12:30:36.305Z,3.45
2022-10-23T12:33:33.960Z,2.55
2022-10-23T12:36:44.575Z,2.67
2022-10-23T12:39:32.653Z,3.35
2022-10-23T12:42:27.053Z,2.88
2022-10-23T12:45:19.872Z,2.05
2022-10-23T12:48:06.048Z,4.10
2022-10-23T12:50:54.560Z,2.67
2022-10-23T12:53:40.349Z,1.65
2022-10-23T12:56:29.445Z,4.13
2022-10-23T12:59:36.255Z,3.42
2022-10-23T13:02:26.061Z,3.70
2022-10-23T13:05:19.045Z,3.83
2022-10-23T13:08:06.347Z,1.42
2022-10-23T13:11:05.689Z,2.10
2022-10-23T13:13:54.867Z,1.77
2022-10-23T13:16:40.738Z,2.33
2022-10-23T13:19:27.508Z,3.55
2022-10-23T13:22:21.572Z,3.75
2022-10-23T13:25:29.681Z,2.40
2022-10-23T13:28:19.018Z,1.90
2022-10-23T13:31:23.124Z,5.63
2022-10-23T13:34:19.736Z,2.17
2022-10-23T13:37:26.647Z,4.15
2022-10-23T13:40:25.850Z,2.55
2022-10-23T13:43:18.888Z,2.65
2022-10-23T13:46:04.520Z,4.00
2022-10-23T13:48:51.229Z,3.13
2022-10-23T13:51:51.868Z,2.72
2022-10-23T13:54:37.557Z,4.32
2022-10-23T13:57:23.148Z,2.53
2022-10-23T14:00:09.481Z,1.95
2022-10-23T14:02:57.236Z,3.70
2022-10-23T14:05:42.963Z,5.75
2022-10-23T14:08:28.478Z,2.42
2022-10-23T14:11:16.080Z,4.97
2022-10-23T14:14:02.286Z,2.53
2022-10-23T14:16:47.750Z,2.22
2022-10-23T14:19:34.181Z,1.92
2022-10-23T14:22:20.099Z,3.72
2022-10-23T14:25:06.433Z,2.08
2022-10-23T14:27:52.014Z,7.90
2022-10-23T14:30:37.736Z,3.47
2022-10-23T14:33:24.464Z,2.08
2022-10-23T14:36:10.710Z,3.25
2022-10-23T14:38:57.834Z,6.90
2022-10-23T14:41:43.344Z,3.25
2022-10-23T14:44:28.838Z,3.97
2022-10-23T14:47:14.251Z,3.83
2022-10-23T14:49:59.920Z,3.88
2022-10-23T14:52:45.516Z,4.78
2022-10-23T14:55:31.006Z,2.30
2022-10-23T14:58:16.549Z,4.65
2022-10-23T15:01:02.535Z,2.60
2022-10-23T15:03:54.592Z,2.85
2022-10-23T15:06:40.519Z,3.28
2022-10-23T15:09:26.461Z,3.60
2022-10-23T15:12:12.135Z,4.28
2022-10-23T15:14:57.752Z,5.97
2022-10-23T15:17:43.763Z,3.17
2022-10-23T15:20:29.754Z,4.95
2022-10-23T15:23:15.422Z,6.53
2022-10-23T15:26:06.457Z,4.72
2022-10-23T15:28:56.632Z,5.63
2022-10-23T15:31:44.909Z,7.10
2022-10-23T15:34:32.432Z,4.38
2022-10-23T15:37:17.952Z,6.65
2022-10-23T15:40:03.983Z,3.58
2022-10-23T15:42:50.164Z,6.25
2022-10-23T15:45:35.955Z,2.88
2022-10-23T15:48:21.624Z,9.57
2022-10-23T15:51:07.156Z,4.07
2022-10-23T15:53:52.736Z,6.20
2022-10-23T15:56:38.467Z,5.45
2022-10-23T15:59:25.572Z,3.65
2022-10-23T16:02:12.690Z,4.45
2022-10-23T16:04:58.539Z,6.85
2022-10-23T16:07:44.671Z,5.18
2022-10-23T16:10:30.545Z,3.33
2022-10-23T16:13:16.152Z,4.80
2022-10-23T16:16:04.994Z,3.47
2022-10-23T16:18:50.588Z,4.00
2022-10-23T16:21:37.354Z,4.10
2022-10-23T16:24:22.830Z,3.22
2022-10-23T16:27:08.452Z,3.30
2022-10-23T16:29:54.262Z,7.00
2022-10-23T16:32:41.270Z,5.30
2022-10-23T16:35:26.848Z,5.78
2022-10-23T16:38:24.187Z,6.30
2022-10-23T16:41:10.517Z,6.70
2022-10-23T16:44:04.539Z,6.93
2022-10-23T16:47:00.342Z,9.15
2022-10-23T16:49:45.911Z,4.95
2022-10-23T16:52:31.315Z,5.72
2022-10-23T16:55:16.942Z,6.38
2022-10-23T16:58:02.859Z,7.75
2022-10-23T17:00:57.563Z,6.32
2022-10-23T17:03:47.761Z,5.57
2022-10-23T17:06:33.555Z,6.65
2022-10-23T17:09:19.409Z,6.50
2022-10-23T17:12:06.021Z,8.35
2022-10-23T17:14:51.306Z,11.10
2022-10-23T17:17:37.018Z,13.57
2022-10-23T17:20:22.382Z,11.27
2022-10-23T17:23:08.036Z,12.68
2022-10-23T17:25:54.234Z,13.85
2022-10-23T17:28:42.218Z,8.70
2022-10-23T17:31:31.110Z,11.45
2022-10-23T17:34:20.777Z,9.90
2022-10-23T17:37:06.324Z,11.40
2022-10-23T17:39:51.797Z,7.40
2022-10-23T17:42:37.421Z,14.32
2022-10-23T17:45:23.069Z,9.93
2022-10-23T17:48:08.759Z,10.23
2022-10-23T17:51:16.262Z,6.95
2022-10-23T17:54:06.699Z,8.15
2022-10-23T17:56:52.435Z,9.43
2022-10-23T17:59:39.107Z,9.95
2022-10-23T18:02:24.844Z,8.18
2022-10-23T18:05:11.258Z,11.63
2022-10-23T18:07:56.907Z,11.85
2022-10-23T18:10:42.445Z,9.88
2022-10-23T18:13:28.086Z,9.40
2022-10-23T18:16:14.330Z,9.48
2022-10-23T18:19:01.789Z,13.00
2022-10-23T18:21:47.902Z,8.82
2022-10-23T18:24:33.435Z,11.90
2022-10-23T18:27:19.025Z,13.50
2022-10-23T18:30:04.951Z,9.38
2022-10-23T18:32:50.680Z,9.73
2022-10-23T18:35:36.588Z,8.43
2022-10-23T18:38:22.386Z,9.70
2022-10-23T18:41:07.976Z,6.97
2022-10-23T18:43:54.653Z,10.77
2022-10-23T18:46:40.663Z,9.00
2022-10-23T18:49:26.898Z,8.82
2022-10-23T18:52:12.807Z,13.73
2022-10-23T18:54:58.662Z,11.18
2022-10-23T18:57:44.483Z,8.90
2022-10-23T19:00:30.365Z,6.95
2022-10-23T19:03:16.229Z,8.82
2022-10-23T19:06:01.797Z,7.30
2022-10-23T19:08:47.841Z,7.68
2022-10-23T19:11:33.868Z,9.07
2022-10-23T19:14:19.623Z,9.05
2022-10-23T19:17:19.515Z,7.32
2022-10-23T19:20:14.827Z,10.60
2022-10-23T19:23:01.731Z,9.82
2022-10-23T19:25:48.224Z,10.90
2022-10-23T19:28:37.576Z,9.60
2022-10-23T19:31:27.104Z,6.60
2022-10-23T19:34:12.753Z,5.67
2022-10-23T19:36:58.198Z,6.50
2022-10-23T19:39:44.089Z,7.18
2022-10-23T19:42:29.379Z,6.88
2022-10-23T19:45:15.642Z,5.65
2022-10-23T19:48:00.907Z,4.07
2022-10-23T19:50:46.500Z,7.30
2022-10-23T19:53:32.173Z,3.92
2022-10-23T19:56:17.864Z,6.68
2022-10-23T19:59:04.285Z,7.05
2022-10-23T20:01:50.102Z,4.32
2022-10-23T20:04:35.818Z,3.25
2022-10-23T20:07:22.288Z,5.90
2022-10-23T20:10:08.759Z,5.22
2022-10-23T20:13:02.350Z,6.15
2022-10-23T20:16:00.204Z,4.25
2022-10-23T20:18:46.396Z,2.33
2022-10-23T20:21:32.184Z,4.47
2022-10-23T20:24:19.335Z,7.93
2022-10-23T20:27:04.882Z,4.13
2022-10-23T20:29:50.769Z,4.97
2022-10-23T20:32:36.195Z,3.90
2022-10-23T20:35:21.782Z,4.32
2022-10-23T20:38:08.145Z,6.55
2022-10-23T20:41:00.449Z,3.47
2022-10-23T20:43:46.651Z,3.45
2022-10-23T20:46:32.734Z,5.00
2022-10-23T20:49:19.215Z,4.57
2022-10-23T20:52:04.916Z,2.58
2022-10-23T20:54:50.263Z,4.00
2022-10-23T20:57:35.921Z,3.13
2022-10-23T21:00:21.579Z,3.97
2022-10-23T21:03:07.484Z,4.63
2022-10-23T21:05:52.954Z,3.70
2022-10-23T21:08:38.883Z,5.00
2022-10-23T21:11:25.287Z,3.38
2022-10-23T21:14:10.892Z,7.07
2022-10-23T21:16:56.365Z,3.97
2022-10-23T21:19:41.798Z,3.00
2022-10-23T21:22:27.416Z,4.53
2022-10-23T21:25:12.958Z,4.57
2022-10-23T21:27:58.435Z,5.07
2022-10-23T21:30:43.941Z,5.32
2022-10-23T21:33:29.766Z,4.55
2022-10-23T21:36:19.320Z,3.83
2022-10-23T21:39:05.117Z,3.78
2022-10-23T21:41:50.509Z,5.45
2022-10-23T21:44:36.308Z,4.60
2022-10-23T21:47:21.842Z,4.57
2022-10-23T21:50:07.837Z,3.17
2022-10-23T21:52:53.953Z,4.72
2022-10-23T21:55:39.982Z,3.47
2022-10-23T21:58:25.567Z,2.53
2022-10-23T22:01:11.319Z,4.90
2022-10-23T22:03:56.926Z,5.88
2022-10-23T22:06:44.113Z,3.58
2022-10-23T22:09:29.593Z,6.70
2022-10-23T22:12:15.184Z,25.65
2022-10-23T22:15:01.008Z,5.13
2022-10-23T22:17:46.740Z,5.07
2022-10-23T22:20:32.546Z,4.93
2022-10-23T22:23:18.230Z,4.53
2022-10-23T22:26:09.987Z,4.50
2022-10-23T22:28:57.746Z,3.30
2022-10-23T22:31:45.778Z,5.75
2022-10-23T22:37:41.136Z,4.53
2022-10-23T22:40:26.669Z,6.07
2022-10-23T22:43:12.157Z,5.20
2022-10-23T22:46:21.744Z,7.72
2022-10-23T22:49:07.990Z,7.22
2022-10-23T22:51:53.562Z,5.85
2022-10-23T22:54:39.085Z,8.30
2022-10-23T23:00:10.600Z,7.88
2022-10-23T23:02:59.276Z,4.45
2022-10-23T23:05:47.304Z,6.35
2022-10-23T23:08:34.202Z,7.15
2022-10-23T23:11:21.534Z,5.53
2022-10-23T23:16:57.605Z,6.30
2022-10-23T23:19:43.160Z,6.90
2022-10-23T23:22:28.724Z,5.22
2022-10-23T23:25:14.543Z,9.70
2022-10-23T23:28:00.498Z,6.43
2022-10-23T23:30:47.265Z,9.18
2022-10-23T23:33:32.802Z,6.65
2022-10-23T23:36:20.998Z,7.68
2022-10-23T23:39:06.898Z,6.05
2022-10-23T23:41:52.758Z,6.20
2022-10-23T23:44:45.762Z,7.53
2022-10-23T23:47:41.703Z,4.55
2022-10-23T23:50:28.031Z,6.72
2022-10-23T23:53:13.513Z,7.55
2022-10-23T23:55:59.483Z,6.00
2022-10-23T23:58:45.305Z,8.25
